createdAt,value
2023-05-21T00:02:19.859Z,101135.50
2023-05-21T00:04:46.729Z,101135.22
2023-05-21T00:04:51.354Z,101135.22
2023-05-21T00:07:13.468Z,101086.00
2023-05-21T00:09:40.214Z,101173.72
2023-05-21T00:09:51.450Z,101173.72
2023-05-21T00:12:07.857Z,101149.16
2023-05-21T00:14:35.052Z,101202.16
2023-05-21T00:14:51.381Z,101202.16
2023-05-21T00:17:01.478Z,101194.47
2023-05-21T00:19:27.969Z,101191.94
2023-05-21T00:19:51.381Z,101191.94
2023-05-21T00:21:54.867Z,101192.03
2023-05-21T00:24:21.341Z,101186.84
2023-05-21T00:24:51.384Z,101186.84
2023-05-21T00:26:47.816Z,101125.50
2023-05-21T00:29:14.273Z,101109.53
2023-05-21T00:29:51.364Z,101109.53
2023-05-21T00:31:43.083Z,101188.19
2023-05-21T00:34:09.716Z,101177.88
2023-05-21T00:34:51.339Z,101177.88
2023-05-21T00:36:36.687Z,101145.16
2023-05-21T00:39:04.526Z,101159.16
2023-05-21T00:39:51.469Z,101159.16
2023-05-21T00:41:30.916Z,101184.75
2023-05-21T00:44:00.255Z,101120.16
2023-05-21T00:44:51.429Z,101120.16
2023-05-21T00:46:28.542Z,101149.94
2023-05-21T00:48:57.979Z,101176.94
2023-05-21T00:49:51.388Z,101176.94
2023-05-21T00:51:25.842Z,101096.03
2023-05-21T00:53:53.157Z,101117.91
2023-05-21T00:54:51.401Z,101117.91
2023-05-21T00:56:21.901Z,101110.19
2023-05-21T00:58:48.505Z,101171.66
2023-05-21T00:59:51.352Z,101171.66
2023-05-21T01:01:16.145Z,101163.13
2023-05-21T01:03:42.965Z,101130.53
2023-05-21T01:04:51.341Z,101130.53
2023-05-21T01:06:10.958Z,101162.16
2023-05-21T01:08:38.954Z,101163.69
2023-05-21T01:09:51.359Z,101163.69
2023-05-21T01:11:06.920Z,101093.66
2023-05-21T01:13:36.907Z,101141.13
2023-05-21T01:14:51.362Z,101141.13
2023-05-21T01:16:06.628Z,100989.75
2023-05-21T01:18:43.523Z,101118.22
2023-05-21T01:19:51.451Z,101118.22
2023-05-21T01:21:10.407Z,101096.28
2023-05-21T01:23:39.446Z,101080.47
2023-05-21T01:24:51.358Z,101080.47
2023-05-21T01:26:07.293Z,101148.06
2023-05-21T01:28:34.528Z,101159.69
2023-05-21T01:29:51.349Z,101159.69
2023-05-21T01:31:20.449Z,101107.06
2023-05-21T01:33:49.982Z,101145.94
2023-05-21T01:34:51.366Z,101145.94
2023-05-21T01:36:26.769Z,101155.69
2023-05-21T01:39:02.116Z,101141.31
2023-05-21T01:39:51.411Z,101141.31
2023-05-21T01:41:33.105Z,101129.47
2023-05-21T01:44:03.592Z,101083.53
2023-05-21T01:44:51.373Z,101083.53
2023-05-21T01:46:32.391Z,101103.97
2023-05-21T01:48:59.262Z,101142.69
2023-05-21T01:49:51.371Z,101142.69
2023-05-21T01:51:26.543Z,101102.19
2023-05-21T01:53:52.928Z,101099.13
2023-05-21T01:54:51.388Z,101099.13
2023-05-21T01:56:19.411Z,101060.66
2023-05-21T01:58:45.821Z,101132.09
2023-05-21T01:59:51.377Z,101132.09
2023-05-21T02:01:12.467Z,101129.59
2023-05-21T02:03:39.266Z,101099.03
2023-05-21T02:04:51.468Z,101099.03
2023-05-21T02:06:05.787Z,101130.88
2023-05-21T02:08:33.391Z,101138.56
2023-05-21T02:09:51.366Z,101138.56
2023-05-21T02:10:59.794Z,101138.78
2023-05-21T02:13:26.839Z,101130.19
2023-05-21T02:14:51.367Z,101130.19
2023-05-21T02:15:54.673Z,101081.00
2023-05-21T02:18:21.708Z,101046.22
2023-05-21T02:19:51.360Z,101046.22
2023-05-21T02:20:48.165Z,101078.97
2023-05-21T02:23:14.603Z,101133.38
2023-05-21T02:24:51.358Z,101133.38
2023-05-21T02:25:40.979Z,101043.19
2023-05-21T02:28:07.791Z,101132.53
2023-05-21T02:29:51.366Z,101132.53
2023-05-21T02:30:34.462Z,101123.84
2023-05-21T02:33:00.926Z,101069.38
2023-05-21T02:34:51.388Z,101069.38
2023-05-21T02:35:27.560Z,101129.94
2023-05-21T02:37:58.944Z,101036.44
2023-05-21T02:39:51.407Z,101036.44
2023-05-21T02:40:25.443Z,101074.03
2023-05-21T02:42:51.882Z,101069.69
2023-05-21T02:44:51.382Z,101069.69
2023-05-21T02:45:18.261Z,101118.13
2023-05-21T02:47:44.952Z,101034.66
2023-05-21T02:49:51.379Z,101034.66
2023-05-21T02:50:13.569Z,101039.72
2023-05-21T02:52:40.007Z,101034.53
2023-05-21T02:54:51.430Z,101034.53
2023-05-21T02:55:06.983Z,101095.22
2023-05-21T02:57:33.550Z,101061.66
2023-05-21T02:59:51.367Z,101061.66
2023-05-21T02:59:59.915Z,101059.94
2023-05-21T03:02:26.462Z,101112.84
2023-05-21T03:04:51.591Z,101112.84
2023-05-21T03:04:52.983Z,101063.44
2023-05-21T03:07:19.721Z,101091.69
2023-05-21T03:09:47.096Z,101054.22
2023-05-21T03:09:51.388Z,101054.22
2023-05-21T03:12:13.559Z,101068.53
2023-05-21T03:14:42.466Z,101052.25
2023-05-21T03:14:51.487Z,101052.25
2023-05-21T03:17:08.884Z,101092.22
2023-05-21T03:19:36.396Z,101091.38
2023-05-21T03:19:51.383Z,101091.38
2023-05-21T03:22:06.641Z,101101.72
2023-05-21T03:24:33.354Z,101100.88
2023-05-21T03:24:51.393Z,101100.88
2023-05-21T03:27:01.393Z,101054.09
2023-05-21T03:29:28.459Z,101022.53
2023-05-21T03:29:51.391Z,101022.53
2023-05-21T03:31:55.572Z,101055.47
2023-05-21T03:34:22.130Z,101097.09
2023-05-21T03:34:51.379Z,101097.09
2023-05-21T03:36:48.642Z,101093.44
2023-05-21T03:39:15.194Z,100928.72
2023-05-21T03:39:51.442Z,100928.72
2023-05-21T03:41:41.607Z,101097.78
2023-05-21T03:44:08.235Z,101075.91
2023-05-21T03:44:51.418Z,101075.91
2023-05-21T03:46:34.852Z,101076.50
2023-05-21T03:49:01.456Z,101094.91
2023-05-21T03:49:51.416Z,101094.91
2023-05-21T03:51:27.995Z,101095.72
2023-05-21T03:53:54.453Z,100985.16
2023-05-21T03:54:51.389Z,100985.16
2023-05-21T03:56:21.592Z,101014.91
2023-05-21T03:58:48.035Z,101100.66
2023-05-21T03:59:51.396Z,101100.66
2023-05-21T04:01:14.600Z,101107.78
2023-05-21T04:03:41.327Z,101083.16
2023-05-21T04:04:51.547Z,101083.16
2023-05-21T04:06:10.126Z,101006.63
2023-05-21T04:08:37.984Z,101102.13
2023-05-21T04:09:51.389Z,101102.13
2023-05-21T04:11:04.457Z,101113.50
2023-05-21T04:13:30.826Z,101108.09
2023-05-21T04:14:51.367Z,101108.09
2023-05-21T04:15:57.272Z,101109.78
2023-05-21T04:18:25.911Z,101107.13
2023-05-21T04:19:51.373Z,101107.13
2023-05-21T04:20:52.516Z,101057.63
2023-05-21T04:23:19.068Z,101105.13
2023-05-21T04:24:51.418Z,101105.13
2023-05-21T04:25:45.552Z,100938.47
2023-05-21T04:28:19.814Z,101023.00
2023-05-21T04:29:51.385Z,101023.00
2023-05-21T04:30:47.634Z,101033.59
2023-05-21T04:33:17.895Z,101030.56
2023-05-21T04:34:51.403Z,101030.56
2023-05-21T04:35:50.095Z,101045.84
2023-05-21T04:38:20.483Z,101114.44
2023-05-21T04:39:51.444Z,101114.44
2023-05-21T04:40:53.759Z,100949.44
2023-05-21T04:43:28.181Z,101115.19
2023-05-21T04:44:51.363Z,101115.19
2023-05-21T04:45:54.868Z,101111.56
2023-05-21T04:48:23.017Z,101103.13
2023-05-21T04:49:51.410Z,101103.13
2023-05-21T04:50:49.428Z,101088.44
2023-05-21T04:53:16.062Z,101033.81
2023-05-21T04:54:51.386Z,101033.81
2023-05-21T04:55:42.646Z,101119.59
2023-05-21T04:58:12.288Z,101098.75
2023-05-21T04:59:51.400Z,101098.75
2023-05-21T05:00:42.108Z,101070.09
2023-05-21T05:03:08.629Z,101119.00
2023-05-21T05:04:51.410Z,101119.00
2023-05-21T05:05:35.365Z,101078.44
2023-05-21T05:08:02.473Z,101114.31
2023-05-21T05:09:51.377Z,101114.31
2023-05-21T05:10:31.303Z,101116.72
2023-05-21T05:12:57.718Z,101099.19
2023-05-21T05:14:51.395Z,101099.19
2023-05-21T05:15:24.171Z,101051.88
2023-05-21T05:17:50.655Z,101068.47
2023-05-21T05:19:51.400Z,101068.47
2023-05-21T05:20:17.192Z,101091.91
2023-05-21T05:22:43.587Z,101111.19
2023-05-21T05:24:51.404Z,101111.19
2023-05-21T05:25:10.169Z,101129.56
2023-05-21T05:27:38.372Z,101094.72
2023-05-21T05:29:51.387Z,101094.72
2023-05-21T05:30:05.578Z,100832.28
2023-05-21T05:32:32.097Z,101036.25
2023-05-21T05:34:51.409Z,101036.25
2023-05-21T05:34:59.528Z,100911.66
2023-05-21T05:37:27.384Z,101017.06
2023-05-21T05:39:51.467Z,101017.06
2023-05-21T05:39:53.774Z,101006.19
2023-05-21T05:42:20.245Z,101106.81
2023-05-21T05:44:46.683Z,101099.13
2023-05-21T05:44:51.397Z,101099.13
2023-05-21T05:47:13.104Z,101035.75
2023-05-21T05:49:39.609Z,101039.16
2023-05-21T05:49:51.416Z,101039.16
2023-05-21T05:52:06.642Z,101109.22
2023-05-21T05:54:33.553Z,101094.25
2023-05-21T05:54:51.374Z,101094.25
2023-05-21T05:57:00.050Z,101072.56
2023-05-21T05:59:26.567Z,100946.13
2023-05-21T05:59:51.426Z,100946.13
2023-05-21T06:01:52.952Z,101067.50
2023-05-21T06:04:19.372Z,101042.16
2023-05-21T06:04:51.393Z,101042.16
2023-05-21T06:06:46.056Z,101092.34
2023-05-21T06:09:12.543Z,101096.28
2023-05-21T06:09:51.388Z,101096.28
2023-05-21T06:11:40.267Z,101082.63
2023-05-21T06:14:06.686Z,101003.03
2023-05-21T06:14:51.419Z,101003.03
2023-05-21T06:16:33.902Z,101079.94
2023-05-21T06:19:00.636Z,101084.69
2023-05-21T06:19:51.413Z,101084.69
2023-05-21T06:21:27.155Z,101058.28
2023-05-21T06:23:53.582Z,101087.31
2023-05-21T06:24:51.434Z,101087.31
2023-05-21T06:26:20.146Z,100927.53
2023-05-21T06:28:46.668Z,101082.63
2023-05-21T06:29:51.404Z,101082.63
2023-05-21T06:31:13.632Z,101047.34
2023-05-21T06:33:40.179Z,101003.81
2023-05-21T06:34:51.411Z,101003.81
2023-05-21T06:36:06.780Z,101023.28
2023-05-21T06:38:33.335Z,101061.38
2023-05-21T06:39:51.490Z,101061.38
2023-05-21T06:41:00.027Z,101016.16
2023-05-21T06:43:26.445Z,101055.66
2023-05-21T06:44:51.377Z,101055.66
2023-05-21T06:45:52.876Z,100926.47
2023-05-21T06:48:19.345Z,101032.75
2023-05-21T06:49:51.409Z,101032.75
2023-05-21T06:50:45.804Z,101032.25
2023-05-21T06:53:13.833Z,100948.56
2023-05-21T06:54:51.401Z,100948.56
2023-05-21T06:55:40.221Z,100950.06
2023-05-21T06:58:06.689Z,101020.09
2023-05-21T06:59:51.397Z,101020.09
2023-05-21T07:00:35.471Z,100981.34
2023-05-21T07:03:02.028Z,100954.69
2023-05-21T07:04:51.413Z,100954.69
2023-05-21T07:05:29.721Z,101023.56
2023-05-21T07:07:56.493Z,100924.66
2023-05-21T07:09:51.445Z,100924.66
2023-05-21T07:10:22.913Z,101006.56
2023-05-21T07:12:49.368Z,100916.72
2023-05-21T07:14:51.411Z,100916.72
2023-05-21T07:15:15.827Z,100951.22
2023-05-21T07:17:42.197Z,100939.22
2023-05-21T07:19:51.441Z,100939.22
2023-05-21T07:20:09.985Z,100895.84
2023-05-21T07:22:38.874Z,100934.84
2023-05-21T07:24:51.403Z,100934.84
2023-05-21T07:25:06.614Z,100968.31
2023-05-21T07:27:33.009Z,100953.81
2023-05-21T07:29:51.390Z,100953.81
2023-05-21T07:29:59.379Z,100848.09
2023-05-21T07:32:26.835Z,100894.41
2023-05-21T07:34:54.222Z,100894.41
2023-05-21T07:34:54.282Z,100943.78
2023-05-21T07:37:21.391Z,100953.22
2023-05-21T07:39:47.914Z,100885.28
2023-05-21T07:39:51.505Z,100885.28
2023-05-21T07:42:14.337Z,100971.16
2023-05-21T07:44:40.807Z,100862.63
2023-05-21T07:44:51.378Z,100862.63
2023-05-21T07:47:07.234Z,100871.50
2023-05-21T07:49:33.677Z,100895.50
2023-05-21T07:49:51.429Z,100895.50
2023-05-21T07:52:00.116Z,100907.38
2023-05-21T07:54:28.976Z,100865.25
2023-05-21T07:54:51.501Z,100865.25
2023-05-21T07:56:55.385Z,100855.72
2023-05-21T07:59:21.844Z,100889.88
2023-05-21T07:59:51.404Z,100889.88
2023-05-21T08:01:48.298Z,100877.94
2023-05-21T08:04:14.832Z,100849.78
2023-05-21T08:04:51.432Z,100849.78
2023-05-21T08:06:41.411Z,100851.13
2023-05-21T08:09:08.224Z,100866.06
2023-05-21T08:09:51.412Z,100866.06
2023-05-21T08:11:34.720Z,100897.34
2023-05-21T08:14:01.080Z,100918.59
2023-05-21T08:14:51.409Z,100918.59
2023-05-21T08:16:27.547Z,100818.03
2023-05-21T08:18:54.106Z,100897.00
2023-05-21T08:19:51.400Z,100897.00
2023-05-21T08:21:20.793Z,100851.97
2023-05-21T08:23:51.957Z,100852.84
2023-05-21T08:24:51.417Z,100852.84
2023-05-21T08:26:18.370Z,100842.72
2023-05-21T08:28:44.777Z,100795.47
2023-05-21T08:29:51.389Z,100795.47
2023-05-21T08:31:11.280Z,100866.66
2023-05-21T08:33:38.474Z,100844.19
2023-05-21T08:34:51.387Z,100844.19
2023-05-21T08:36:08.383Z,100799.06
2023-05-21T08:38:34.955Z,100879.84
2023-05-21T08:39:51.425Z,100879.84
2023-05-21T08:41:01.444Z,100742.22
2023-05-21T08:43:28.490Z,100727.53
2023-05-21T08:44:51.402Z,100727.53
2023-05-21T08:45:57.154Z,100799.53
2023-05-21T08:48:24.162Z,100846.22
2023-05-21T08:49:51.402Z,100846.22
2023-05-21T08:50:52.391Z,100805.16
2023-05-21T08:53:27.314Z,100826.50
2023-05-21T08:54:51.459Z,100826.50
2023-05-21T08:55:58.243Z,100736.56
2023-05-21T08:58:24.651Z,100765.69
2023-05-21T08:59:51.405Z,100765.69
2023-05-21T09:00:51.329Z,100741.78
2023-05-21T09:03:17.917Z,100809.06
2023-05-21T09:04:51.395Z,100809.06
2023-05-21T09:05:45.830Z,100790.53
2023-05-21T09:08:19.023Z,100808.44
2023-05-21T09:09:51.391Z,100808.44
2023-05-21T09:10:50.187Z,100826.16
2023-05-21T09:13:18.310Z,100742.59
2023-05-21T09:14:51.440Z,100742.59
2023-05-21T09:15:45.625Z,100714.50
2023-05-21T09:18:12.633Z,100688.25
2023-05-21T09:19:51.396Z,100688.25
2023-05-21T09:20:39.647Z,100717.84
2023-05-21T09:23:12.222Z,100680.34
2023-05-21T09:24:51.422Z,100680.34
2023-05-21T09:25:39.130Z,100769.81
2023-05-21T09:28:12.294Z,100687.41
2023-05-21T09:29:51.452Z,100687.41
2023-05-21T09:30:47.280Z,100744.22
2023-05-21T09:33:24.589Z,100762.22
2023-05-21T09:34:51.437Z,100762.22
2023-05-21T09:35:51.000Z,100739.78
2023-05-21T09:38:17.702Z,100675.84
2023-05-21T09:39:51.486Z,100675.84
2023-05-21T09:40:48.205Z,100700.78
2023-05-21T09:43:18.066Z,100741.16
2023-05-21T09:44:51.481Z,100741.16
2023-05-21T09:45:55.760Z,100664.06
2023-05-21T09:48:42.768Z,100767.63
2023-05-21T09:49:51.525Z,100767.63
2023-05-21T09:51:13.182Z,100738.75
2023-05-21T09:53:59.728Z,100732.06
2023-05-21T09:54:51.439Z,100732.06
2023-05-21T09:56:29.222Z,100733.53
2023-05-21T09:58:58.340Z,100751.69
2023-05-21T09:59:51.443Z,100751.69
2023-05-21T10:01:25.022Z,100639.75
2023-05-21T10:03:56.466Z,100715.00
2023-05-21T10:04:51.488Z,100715.00
2023-05-21T10:06:32.222Z,100614.41
2023-05-21T10:09:03.961Z,100718.41
2023-05-21T10:09:51.443Z,100718.41
2023-05-21T10:11:32.147Z,100752.53
2023-05-21T10:14:04.902Z,100664.03
2023-05-21T10:14:51.462Z,100664.03
2023-05-21T10:16:33.384Z,100702.50
2023-05-21T10:19:00.792Z,100655.47
2023-05-21T10:19:51.442Z,100655.47
2023-05-21T10:21:27.686Z,100671.50
2023-05-21T10:23:58.973Z,100641.41
2023-05-21T10:24:51.471Z,100641.41
2023-05-21T10:26:26.378Z,100715.94
2023-05-21T10:28:56.069Z,100793.81
2023-05-21T10:29:51.457Z,100793.81
2023-05-21T10:31:23.173Z,100750.03
2023-05-21T10:33:51.017Z,100719.88
2023-05-21T10:34:51.462Z,100719.88
2023-05-21T10:36:20.204Z,100762.31
2023-05-21T10:38:47.045Z,100645.09
2023-05-21T10:39:51.567Z,100645.09
2023-05-21T10:41:16.888Z,100726.13
2023-05-21T10:43:54.291Z,100618.44
2023-05-21T10:44:51.492Z,100618.44
2023-05-21T10:46:42.039Z,100695.69
2023-05-21T10:49:38.443Z,100722.16
2023-05-21T10:49:51.522Z,100722.16
2023-05-21T10:52:32.962Z,100609.28
2023-05-21T10:54:51.454Z,100609.28
2023-05-21T10:55:23.549Z,100734.03
2023-05-21T10:58:12.349Z,100785.59
2023-05-21T10:59:51.446Z,100785.59
2023-05-21T11:00:39.478Z,100691.38
2023-05-21T11:03:07.559Z,100730.69
2023-05-21T11:04:51.473Z,100730.69
2023-05-21T11:05:56.059Z,100631.31
2023-05-21T11:08:23.577Z,100609.88
2023-05-21T11:09:51.473Z,100609.88
2023-05-21T11:10:55.249Z,100637.13
2023-05-21T11:13:21.733Z,100709.94
2023-05-21T11:14:51.469Z,100709.94
2023-05-21T11:15:57.160Z,100674.56
2023-05-21T11:18:24.294Z,100677.22
2023-05-21T11:19:51.554Z,100677.22
2023-05-21T11:20:51.766Z,100665.56
2023-05-21T11:23:21.767Z,100775.00
2023-05-21T11:24:51.702Z,100775.00
2023-05-21T11:26:02.022Z,100735.19
2023-05-21T11:28:34.479Z,100654.25
2023-05-21T11:29:51.487Z,100654.25
2023-05-21T11:31:19.699Z,100735.03
2023-05-21T11:33:47.802Z,100714.16
2023-05-21T11:34:51.480Z,100714.16
2023-05-21T11:36:14.169Z,100703.38
2023-05-21T11:38:40.610Z,100597.97
2023-05-21T11:39:51.489Z,100597.97
2023-05-21T11:41:09.260Z,100720.31
2023-05-21T11:43:40.409Z,100801.50
2023-05-21T11:44:51.481Z,100801.50
2023-05-21T11:46:06.869Z,100828.94
2023-05-21T11:48:33.277Z,100722.69
2023-05-21T11:49:51.663Z,100722.69
2023-05-21T11:51:01.103Z,100784.69
2023-05-21T11:53:32.650Z,100712.72
2023-05-21T11:54:51.491Z,100712.72
2023-05-21T11:56:02.034Z,100720.91
2023-05-21T11:58:31.491Z,100714.53
2023-05-21T11:59:51.481Z,100714.53
2023-05-21T12:00:57.916Z,100725.34
2023-05-21T12:03:26.938Z,100727.56
2023-05-21T12:04:51.494Z,100727.56
2023-05-21T12:05:54.187Z,100726.38
2023-05-21T12:08:28.841Z,100820.88
2023-05-21T12:09:51.486Z,100820.88
2023-05-21T12:11:01.802Z,100651.88
2023-05-21T12:13:28.852Z,100740.16
2023-05-21T12:14:51.492Z,100740.16
2023-05-21T12:15:55.363Z,100690.63
2023-05-21T12:18:21.998Z,100761.03
2023-05-21T12:19:51.475Z,100761.03
2023-05-21T12:20:48.528Z,100705.13
2023-05-21T12:23:23.884Z,100707.75
2023-05-21T12:24:51.461Z,100707.75
2023-05-21T12:25:51.265Z,100762.63
2023-05-21T12:28:17.797Z,100760.16
2023-05-21T12:29:51.495Z,100760.16
2023-05-21T12:30:44.277Z,100817.13
2023-05-21T12:33:12.079Z,100756.69
2023-05-21T12:34:51.524Z,100756.69
2023-05-21T12:35:38.605Z,100740.56
2023-05-21T12:38:05.035Z,100709.84
2023-05-21T12:39:51.516Z,100709.84
2023-05-21T12:40:39.603Z,100804.41
2023-05-21T12:43:07.032Z,100754.75
2023-05-21T12:44:51.486Z,100754.75
2023-05-21T12:45:33.552Z,100760.28
2023-05-21T12:48:03.464Z,100724.25
2023-05-21T12:49:53.060Z,100724.25
2023-05-21T12:50:30.010Z,100614.88
2023-05-21T12:52:58.365Z,100723.47
2023-05-21T12:54:51.482Z,100723.47
2023-05-21T12:55:28.585Z,100795.16
2023-05-21T12:58:07.738Z,100769.91
2023-05-21T12:59:51.512Z,100769.91
2023-05-21T13:00:34.605Z,100798.22
2023-05-21T13:03:04.564Z,100674.88
2023-05-21T13:04:51.486Z,100674.88
2023-05-21T13:05:31.397Z,100671.88
2023-05-21T13:07:57.817Z,100688.41
2023-05-21T13:09:51.487Z,100688.41
2023-05-21T13:10:24.316Z,100796.72
2023-05-21T13:12:50.755Z,100788.50
2023-05-21T13:14:51.485Z,100788.50
2023-05-21T13:15:17.406Z,100804.22
2023-05-21T13:17:43.861Z,100738.66
2023-05-21T13:19:51.497Z,100738.66
2023-05-21T13:20:15.167Z,100737.69
2023-05-21T13:22:47.329Z,100735.66
2023-05-21T13:24:51.474Z,100735.66
2023-05-21T13:25:17.176Z,100710.13
2023-05-21T13:27:44.038Z,100692.53
2023-05-21T13:29:51.486Z,100692.53
2023-05-21T13:30:13.787Z,100773.47
2023-05-21T13:32:41.779Z,100686.38
2023-05-21T13:34:51.488Z,100686.38
2023-05-21T13:35:09.849Z,100604.84
2023-05-21T13:37:36.386Z,100729.03
2023-05-21T13:39:51.519Z,100729.03
2023-05-21T13:40:04.125Z,100666.50
2023-05-21T13:42:30.533Z,100718.09
2023-05-21T13:44:51.503Z,100718.09
2023-05-21T13:44:56.930Z,100800.22
2023-05-21T13:47:23.376Z,100719.91
2023-05-21T13:49:49.916Z,100651.91
2023-05-21T13:49:51.513Z,100651.91
2023-05-21T13:52:16.996Z,100562.84
2023-05-21T13:54:43.680Z,100739.91
2023-05-21T13:54:51.484Z,100739.91
2023-05-21T13:57:10.435Z,100812.47
2023-05-21T13:59:36.903Z,100709.16
2023-05-21T13:59:51.484Z,100709.16
2023-05-21T14:02:03.933Z,100667.47
2023-05-21T14:04:30.892Z,100556.97
2023-05-21T14:04:51.485Z,100556.97
2023-05-21T14:06:57.494Z,100675.91
2023-05-21T14:09:27.052Z,100742.25
2023-05-21T14:09:51.492Z,100742.25
2023-05-21T14:11:54.976Z,100629.84
2023-05-21T14:14:21.951Z,100710.25
2023-05-21T14:14:51.503Z,100710.25
2023-05-21T14:16:49.177Z,100828.94
2023-05-21T14:19:16.090Z,100660.66
2023-05-21T14:19:51.500Z,100660.66
2023-05-21T14:21:42.980Z,100687.72
2023-05-21T14:24:09.711Z,100717.81
2023-05-21T14:24:51.478Z,100717.81
2023-05-21T14:26:39.925Z,100729.88
2023-05-21T14:29:06.831Z,100764.09
2023-05-21T14:29:51.484Z,100764.09
2023-05-21T14:31:33.264Z,100763.09
2023-05-21T14:33:59.789Z,100687.06
2023-05-21T14:34:51.479Z,100687.06
2023-05-21T14:36:26.287Z,100672.28
2023-05-21T14:38:52.684Z,100682.75
2023-05-21T14:39:51.563Z,100682.75
2023-05-21T14:41:19.031Z,100602.72
2023-05-21T14:43:45.428Z,100798.13
2023-05-21T14:44:52.493Z,100798.13
2023-05-21T14:46:11.822Z,100799.56
2023-05-21T14:48:38.288Z,100767.56
2023-05-21T14:49:51.799Z,100767.56
2023-05-21T14:51:04.698Z,100783.97
2023-05-21T14:53:31.225Z,100751.13
2023-05-21T14:54:51.479Z,100751.13
2023-05-21T14:55:57.659Z,100604.06
2023-05-21T14:58:24.118Z,100601.13
2023-05-21T14:59:51.491Z,100601.13
2023-05-21T15:00:50.609Z,100736.69
2023-05-21T15:03:17.227Z,100634.22
2023-05-21T15:04:51.480Z,100634.22
2023-05-21T15:05:43.676Z,100631.66
2023-05-21T15:08:10.079Z,100655.78
2023-05-21T15:09:51.499Z,100655.78
2023-05-21T15:10:36.449Z,100703.19
2023-05-21T15:13:02.900Z,100692.81
2023-05-21T15:14:51.526Z,100692.81
2023-05-21T15:15:29.369Z,100641.41
2023-05-21T15:17:57.712Z,100705.38
2023-05-21T15:19:51.473Z,100705.38
2023-05-21T15:20:24.381Z,100702.19
2023-05-21T15:22:59.051Z,100700.84
2023-05-21T15:24:51.502Z,100700.84
2023-05-21T15:25:35.354Z,100810.84
2023-05-21T15:28:02.086Z,100751.63
2023-05-21T15:29:51.489Z,100751.63
2023-05-21T15:30:28.438Z,100648.88
2023-05-21T15:32:54.889Z,100680.94
2023-05-21T15:34:51.613Z,100680.94
2023-05-21T15:35:21.519Z,100647.91
2023-05-21T15:37:48.035Z,100697.19
2023-05-21T15:39:51.497Z,100697.19
2023-05-21T15:40:14.557Z,100760.53
2023-05-21T15:42:40.918Z,100651.81
2023-05-21T15:44:51.519Z,100651.81
2023-05-21T15:45:07.831Z,100779.63
2023-05-21T15:47:34.302Z,100694.72
2023-05-21T15:49:51.516Z,100694.72
2023-05-21T15:50:01.149Z,100724.94
2023-05-21T15:52:27.566Z,100707.88
2023-05-21T15:54:51.503Z,100707.88
2023-05-21T15:54:53.965Z,100747.47
2023-05-21T15:57:20.821Z,100709.75
2023-05-21T15:59:47.358Z,100666.66
2023-05-21T15:59:51.488Z,100666.66
2023-05-21T16:02:13.788Z,100736.38
2023-05-21T16:04:40.244Z,100748.44
2023-05-21T16:04:51.522Z,100748.44
2023-05-21T16:07:06.676Z,100761.69
2023-05-21T16:09:33.294Z,100667.50
2023-05-21T16:09:51.581Z,100667.50
2023-05-21T16:11:59.669Z,100794.38
2023-05-21T16:14:26.161Z,100759.19
2023-05-21T16:14:51.516Z,100759.19
2023-05-21T16:16:52.693Z,100766.22
2023-05-21T16:19:19.136Z,100723.09
2023-05-21T16:19:51.524Z,100723.09
2023-05-21T16:21:45.584Z,100775.63
2023-05-21T16:24:11.991Z,100795.72
2023-05-21T16:24:51.528Z,100795.72
2023-05-21T16:26:38.470Z,100721.59
2023-05-21T16:29:04.931Z,100749.53
2023-05-21T16:29:51.496Z,100749.53
2023-05-21T16:31:31.658Z,100798.19
2023-05-21T16:33:58.099Z,100762.44
2023-05-21T16:34:51.562Z,100762.44
2023-05-21T16:36:24.512Z,100739.44
2023-05-21T16:38:50.928Z,100761.75
2023-05-21T16:39:51.597Z,100761.75
2023-05-21T16:41:17.403Z,100720.50
2023-05-21T16:43:43.803Z,100791.91
2023-05-21T16:44:51.523Z,100791.91
2023-05-21T16:46:10.459Z,100770.47
2023-05-21T16:48:38.416Z,100784.00
2023-05-21T16:49:51.552Z,100784.00
2023-05-21T16:51:04.984Z,100796.75
2023-05-21T16:53:31.426Z,100687.00
2023-05-21T16:54:51.552Z,100687.00
2023-05-21T16:55:57.908Z,100783.00
2023-05-21T16:58:24.542Z,100760.41
2023-05-21T16:59:51.568Z,100760.41
2023-05-21T17:00:51.079Z,100707.91
2023-05-21T17:03:17.938Z,100764.50
2023-05-21T17:04:51.545Z,100764.50
2023-05-21T17:05:44.587Z,100784.94
2023-05-21T17:08:11.102Z,100739.44
2023-05-21T17:09:51.544Z,100739.44
2023-05-21T17:10:37.496Z,100766.16
2023-05-21T17:13:17.790Z,100776.53
2023-05-21T17:14:51.552Z,100776.53
2023-05-21T17:15:47.672Z,100762.59
2023-05-21T17:18:14.241Z,100731.44
2023-05-21T17:19:51.567Z,100731.44
2023-05-21T17:20:40.987Z,100700.22
2023-05-21T17:23:07.396Z,100726.38
2023-05-21T17:24:51.584Z,100726.38
2023-05-21T17:25:34.776Z,100763.06
2023-05-21T17:28:01.461Z,100768.50
2023-05-21T17:29:51.549Z,100768.50
2023-05-21T17:30:27.912Z,100817.31
2023-05-21T17:32:58.056Z,100820.06
2023-05-21T17:34:51.557Z,100820.06
2023-05-21T17:35:24.533Z,100821.13
2023-05-21T17:37:53.139Z,100793.16
2023-05-21T17:39:51.597Z,100793.16
2023-05-21T17:40:21.315Z,100805.47
2023-05-21T17:42:47.934Z,100783.63
2023-05-21T17:44:51.533Z,100783.63
2023-05-21T17:45:14.416Z,100821.13
2023-05-21T17:47:40.874Z,100826.19
2023-05-21T17:49:51.607Z,100826.19
2023-05-21T17:50:08.071Z,100745.03
2023-05-21T17:52:34.539Z,100815.72
2023-05-21T17:54:51.524Z,100815.72
2023-05-21T17:55:01.540Z,100769.44
2023-05-21T17:57:27.992Z,100760.13
2023-05-21T17:59:51.583Z,100760.13
2023-05-21T17:59:55.157Z,100757.91
2023-05-21T18:02:23.410Z,100780.28
2023-05-21T18:04:49.876Z,100766.28
2023-05-21T18:04:51.537Z,100766.28
2023-05-21T18:07:16.500Z,100740.88
2023-05-21T18:09:42.869Z,100794.63
2023-05-21T18:09:51.543Z,100794.63
2023-05-21T18:12:09.439Z,100840.56
2023-05-21T18:14:35.922Z,100821.53
2023-05-21T18:14:51.557Z,100821.53
2023-05-21T18:17:02.570Z,100850.19
2023-05-21T18:19:30.371Z,100826.84
2023-05-21T18:19:51.539Z,100826.84
2023-05-21T18:21:56.941Z,100855.25
2023-05-21T18:24:23.393Z,100799.38
2023-05-21T18:24:51.541Z,100799.38
2023-05-21T18:26:49.899Z,100875.03
2023-05-21T18:29:16.272Z,100831.09
2023-05-21T18:29:51.518Z,100831.09
2023-05-21T18:31:44.407Z,100885.81
2023-05-21T18:34:11.047Z,100895.81
2023-05-21T18:34:51.549Z,100895.81
2023-05-21T18:36:40.668Z,100915.38
2023-05-21T18:39:07.906Z,100919.44
2023-05-21T18:39:51.598Z,100919.44
2023-05-21T18:41:34.382Z,100938.09
2023-05-21T18:44:03.848Z,100933.59
2023-05-21T18:44:51.522Z,100933.59
2023-05-21T18:46:31.623Z,101007.25
2023-05-21T18:48:59.756Z,100947.84
2023-05-21T18:49:51.531Z,100947.84
2023-05-21T18:51:26.187Z,100911.47
2023-05-21T18:53:52.634Z,100818.81